Lunes, 27 de Abril del 2015

portal contactenos mapa del sitio buscar Revisar Correo Corporativo

|Reporte METAR por Reginal » ||Reporte TAF por Reginal » ||Reporte METAR, TAF y SIN覲TICO »

Reporte METAR por Regional

|| La Paz || Santa Cruz || Cochabamba || Beni - Pando ||

Informe METAR emitido cada hora.

Regional La Paz

ESTACIÓN

AEROPUERTO

HORA UTC

DESCRIPCIÓN

SLRY

Reyes

14-18S|67-21W

22:00

SLRY 262200Z 00000KT 9999 NSC 31/24 Q1010 A2983 CI HR67 RWY OPR 1 100M=

SLRQ

Rurrenabaque

14-25S|67-29W

22:00

SLRQ 262200Z 00000KT 9999 FEW017 BKN200 29/26 Q1008 A2979 HR83=

SLAP

Apolo

14-44S|68-24W

-

Mensaje no Recibido

SLSB

San Borja

14-51S|66-44W

23:00

SLSB 262300Z 00000KT 9999 NSC 28/26 Q1008 A2979 CI HR84 RWY NML=

SLLP

Internaci贸nal El Alto

16-08S|68-10W

08:00

SLLP 270800Z 07005KT 9999 FEW010 BKN200 04/02 Q1038 A3067 628.6 AC HR90 NOSIG=

SLCN

Chara帽a

17-35S|69-25W

-

Mensaje no Recibido

SLOR

Oruro

17-57S|67-04W

20:00

SLOR 262000Z 11018G28KT 8000 VCTSSH SCT017 FEW020CB SCT070 BKN200 17/08 Q1034 A3056 655.8 CB/SH/E/SE/SW/W/NW TS/E HR55=

SLUY

Uyuni

20-27S|62-52W

23:00

SLUY 262300Z 00000KT 9999 FEW015 FEW020CB SCT200 10/03 Q1034 A3054 658.5 CB DIST N/NW AC HR41=

Regional Cochabamba

ESTACIÓN

AEROPUERTO

HORA UTC

DESCRIPCIÓN

SLCB

Cochabamba

17-25S|66-10W

08:00

SLCB 270800Z 28003KT 9000 FEW027 12/11 Q1025 A3029 751.9 HR91 FU AC CI NOSIG=

SLSU

Sucre

19-00S|65-17W

23:00

SLSU 262300Z 05004KT 9999 FEW015 BKN200 14/12 Q1030 A3042 HR91=

SLPO

Potos铆

19-32S|65-43W

20:00

SLPO 252000Z 06005KT 9999 SCT020 15/04 Q1039 A3068 HR49=

SLAG

Monteagudo

19-49S|63-58W

17:00

SLAG 251700Z WO ATTN=

SLVM

Villamontes

21-15S|63-24W

17:00

SLVM 261700Z 03010KT 9999 SCT025 30/21 Q1012 A2988 HR57=

SLTJ

Tarija

21-33S|64-42W

03:00

SLTJ 270300Z 00000KT 9999 TS BKN027 FEW036CB OVC070 18/16 Q1023 A3022 HR89 CB TS SH N/NE/W/NW=

SLYA

Yacuiba

21-57S|63-39W

23:00

SLYA 262300Z 00000KT 9999 SCT23 OVC070 24/23 Q1014 A2995 HR96=

SLBJ

Bermejo

22-46S|64-18W

17:00

SLBJ 251700Z 36004KT 9999 FEW015 SCT200 29/21 Q1015 A2997 HR63=

Regional Santa Cruz

ESTACIÓN

AEROPUERTO

HORA UTC

DESCRIPCIÓN

SLAS

Ascenci贸n de Guarayos

15-55S|63-09W

23:00

SLAS 262300Z 00000KT 9999 FEW020 27/24 Q1011 A2985 HR82 RWY NML =

SLCP

Concepci贸n

16-08S|62-01W

22:00

SLCP 262200Z 00000KT 9999 BKN017 26/24 Q1014 A2994 HR88 RESH RWY WET OPR=

SLJV

San Javier

16-16S|62-28W

22:00

SLJV 262200Z 00000KT 9999 FEW018 FEW030CB 28/24 Q1010 A2983 HR82 CB SE RWY NML=

SLTI

San Mat铆as

16-20S|58-24W

22:00

SLTI 262200Z 00000KT 9999 NSC 28/27 Q1016 A3000 HR93 RWY NML=

SLSI

San Ignacio de Velasco

16-23S|60-57W

23:00

SLSI 262300Z 00000KT 9999 SCT020 27/24 Q1012 A2988 HR85 RWY NML =

SLVR

Internaci贸nal Viru Viru

17-38S|63-08W

08:00

SLVR 270800Z 26002KT 9999 FEW017 SCT200 22/22 Q1013 A2993 HR97 FU NOSIG=

SLET

El Trompillo

17-48S|63-10W

23:00

SLET 262300Z 31005KT 9999 FEW017 SCT070 BKN200 28/22 Q1010 A2985 HR71 NOSIG=

SLJE

San Jos茅 de Chiquitos

17-49S|60-44W

22:00

SLJE 262200Z 00000KT 9999 FEW017 30/23 Q1013 A2991 HR66 RWY NML =

SLRB

Robor茅

18-19S|59-45W

23:00

SLRB 262300Z 00000KT 9999 NSC 28/26 Q1013 A2991 HR86 RWY NML=

SLVG

Valle Grande

18-28S|64-05W

18:00

SLVG 261800Z 36010KT 9999 SCT027 22/15 Q1025 A3027 HR61 RWY NML =

SLPS

Puerto Su谩rez

18-58S|57-49W

23:00

SLPS 262300Z 00000KT 9999 FEW023 29/24 Q1012 A2989 HR74 FU=

SLCA

Camiri

20-00S|63-31W

23:00

SLCA 262300Z 00000KT 9999 OVC033 24/22 Q1015 A2997 HR85 RWY HUM OPR=

Regional Beni

ESTACIÓN

AEROPUERTO

HORA UTC

DESCRIPCIÓN

SLGM

Guayaramer铆n

10-49S|65-20W

23:00

SLGM 262300Z 36004KT 9999 FEW017 FEW020CB BKN200 29/25 Q1008 A2979 HR79 CB E=

SLRI

Riberalta

11-00S|66-04W

23:00

SLRI 262300Z 00000KT 9999 FEW017 FEW020CB BKN200 31/25 Q1009 A2981 HR70 CB NW=

SLCO

Cobija

11-02S|68-47W

22:00

SLCO 262200Z 00000KT 9999 FEW015 SCT200 30/26 Q1009 A2981 982.0 HR77=

SLJO

San Joaquin

13-03S|64-39W

22:00

SLJO 262200Z 00000KT 9999 FEW017 BKN200 31/25 Q1009 A2982 HR72 RWY NML=

SLMG

San Magdalena

13-15S|64-03W

22:00

SLMG 262200Z 00000KT 9999 FEW017 BKN200 31/26 Q1009 A2980 HR73 RWY NML=

SLRA

San Ram贸n

13-15S|64-36W

22:00

SLRA 262200Z 00000KT 9999 FEW017 BKN200 31/25 Q1009 A2980 HR70 RWY NML=

SLBU

Baures

13-39S|63-42W

22:00

SLBU 262200Z 00000KT 9999 FEW017 SCT200 32/26 Q1009 A2981 HR69 RWY NML=

SLSA

Santa Ana de Yacuma

13-45S|65-26W

23:00

SLSA 262300Z 00000KT 9999 FEW020 BKN200 28/24 Q1009 A2980 HR79=

SLSR

Santa Rosa

14-04S|66-47W

22:00

SLSR 262200Z 12004KT 9999 FEW017 SCT200 32/25 Q1005 A2968 HR66 RWY NML=

SLTR

Trinidad

14-49S|64-54W

23:00

SLTR 262300Z 00000KT 9999 NSC 29/24 Q1009 A2982 991.4 HR74 CI NOSIG=

SLSM

San Ignacio de Moxos

14-57S|65-38W

22:00

SLSM 262200Z 00000KT 9999 FEW017 31/25 Q1007 A2974 HR72 RWY NML=